Terminal Aerodrome Forecast
Issued by NWS

Home | Current Version | Previous Version | Text Only | Print | Product List | Glossary On
Versions: 1 2 3 4 5 6 7 8 9 10 11 12 13 14 15 16 17 18
000
FTUS44 KLZK 251135
TAFHOT
TAF
KHOT 251135Z 2512/2612 19010KT P6SM VCSH SCT030 OVC050
      WS020/22040KT
      TEMPO 2512/2514 OVC015
     FM251500 22010G18KT P6SM VCSH OVC050
     FM251800 24009G18KT P6SM BKN050=

USA.gov is the U.S. government's official web portal to all federal, state and local government web resources and services.